Amapari, Brazil
Current Conditions -  °F | °C
As of 2:00 PM on Saturday 25 Oct 2014 (Local Time) from SBMQ Reporting Station
Scattered Clouds Scattered Clouds  
Wind Chill: 95°   Ceiling: Unl
Heat Index: 105°   Visibility: 6mi
Dew Point: 73°   Wind: 10mph
Humidity: 49%   Direction: 70°ENE
Pressure: 29.8"   Gusts: NA
Location:  0.62°N, 51.65°W
Report Text: SBMQ 251700Z 07009KT 9999 SCT030 35/23 Q1009
Loading
Personal Weather Stations






























Interactive Weather Map
Tropical Storm Tracking
New forecast layout! Learn more

10-Day Weather Forecast

Advertisements
Track Severe Weather on mobile